Time;durP1;ratioP1;P1;durP2;ratioP2;P2;SDS_P1;SDS_P2;PMS_P1;PMS_P2;Temp;Humidity;BMP_temperature;BMP_pressure;BME280_temperature;BME280_humidity;BME280_pressure;Samples;Min_cycle;Max_cycle;Signal;HPM_P1;HPM_P2
2021/12/23 00:02:12;;;;;;;4.10;2.37;;;-2.40;74.60;-3.50;98568.00;;;;5117243;28;20225;-77
2021/12/23 00:04:39;;;;;;;3.33;1.90;;;-2.40;74.60;-3.50;98561.00;;;;5117439;28;20629;-79
2021/12/23 00:07:05;;;;;;;4.33;3.57;;;-2.40;74.00;-3.70;98561.00;;;;5117749;28;20594;-80
2021/12/23 00:10:04;;;;;;;4.50;2.97;;;-2.60;74.00;-3.60;98560.00;;;;5117521;28;20190;-80
2021/12/23 00:12:21;;;;;;;2.93;2.73;;;-2.50;75.10;-3.70;98559.00;;;;5117221;28;20295;-77
2021/12/23 00:14:51;;;;;;;3.53;2.87;;;-2.60;73.70;-3.70;98563.00;;;;5117140;28;20722;-75
2021/12/23 00:17:22;;;;;;;4.07;3.67;;;-2.60;73.50;-3.80;98553.00;;;;5117113;28;20196;-75
2021/12/23 00:23:21;;;;;;;7.57;3.97;;;-2.60;73.30;-3.80;98555.00;;;;5117079;28;20324;-74
2021/12/23 00:25:30;;;;;;;4.17;3.73;;;-2.70;73.50;-3.80;98540.00;;;;5116834;28;20217;-75
2021/12/23 00:27:57;;;;;;;2.93;2.73;;;-2.80;73.70;-3.90;98538.00;;;;5117042;28;20273;-75
2021/12/23 00:30:24;;;;;;;4.57;3.90;;;-2.80;73.60;-3.90;98535.00;;;;5116935;28;20259;-78
2021/12/23 00:32:50;;;;;;;4.63;4.17;;;-2.80;73.70;-3.90;98537.00;;;;5098812;28;20257;-78
2021/12/23 00:35:17;;;;;;;3.77;3.47;;;-2.90;73.60;-3.80;98530.00;;;;5116920;28;20219;-78
2021/12/23 00:37:46;;;;;;;2.87;2.67;;;-2.80;73.80;-3.80;98522.00;;;;5099066;28;20576;-79
2021/12/23 00:40:16;;;;;;;3.73;3.43;;;-2.80;73.80;-3.80;98516.00;;;;5116680;28;20210;-79
2021/12/23 00:42:43;;;;;;;6.67;3.23;;;-2.80;73.80;-4.00;98523.00;;;;5116564;28;20230;-77
2021/12/23 00:45:11;;;;;;;6.13;3.67;;;-2.80;73.90;-3.90;98514.00;;;;5116631;28;20312;-75
2021/12/23 00:47:40;;;;;;;3.07;2.60;;;-2.80;74.10;-3.80;98511.00;;;;5116556;28;20851;-76
2021/12/23 00:50:08;;;;;;;2.80;2.60;;;-2.80;74.50;-3.90;98515.00;;;;5116624;28;20195;-78
2021/12/23 00:52:37;;;;;;;4.10;3.80;;;-2.80;74.00;-3.90;98512.00;;;;5116423;28;20286;-76
2021/12/23 00:55:10;;;;;;;4.00;3.27;;;-2.80;74.60;-3.80;98507.00;;;;5116130;28;20210;-78
2021/12/23 00:57:39;;;;;;;7.73;4.07;;;-2.80;74.10;-3.90;98524.00;;;;5116351;28;20301;-78
2021/12/23 01:00:10;;;;;;;2.53;2.43;;;-2.80;73.80;-3.90;98508.00;;;;5116400;28;20190;-78
2021/12/23 01:02:43;;;;;;;3.90;2.43;;;-2.90;73.70;-4.00;98511.00;;;;5098322;28;20310;-78
2021/12/23 01:05:17;;;;;;;2.73;2.17;;;-2.90;73.20;-3.90;98506.00;;;;5116438;28;20704;-79
2021/12/23 01:07:44;;;;;;;3.83;3.53;;;-2.90;73.10;-4.00;98499.00;;;;5116351;28;20190;-77
2021/12/23 01:10:12;;;;;;;3.17;2.87;;;-2.90;72.80;-4.00;98500.00;;;;5116349;28;20202;-79
2021/12/23 01:12:44;;;;;;;3.90;3.60;;;-2.90;72.80;-4.00;98502.00;;;;5116818;28;20218;-78
2021/12/23 01:15:16;;;;;;;2.10;1.93;;;-3.00;72.50;-4.00;98500.00;;;;5115939;28;20213;-79
2021/12/23 01:17:55;;;;;;;3.87;3.60;;;-3.00;72.60;-4.00;98488.00;;;;5116159;28;20197;-79
2021/12/23 01:20:28;;;;;;;3.17;2.70;;;-2.90;73.10;-3.90;98485.00;;;;5115990;28;20354;-78
2021/12/23 01:22:56;;;;;;;1.73;1.63;;;-2.90;73.40;-4.00;98498.00;;;;5116041;28;20324;-78
2021/12/23 01:25:23;;;;;;;3.60;3.30;;;-2.90;73.50;-4.00;98491.00;;;;5115976;28;20231;-79
2021/12/23 01:27:51;;;;;;;3.10;2.83;;;-2.90;73.90;-3.80;98473.00;;;;5098055;28;20209;-79
2021/12/23 01:30:19;;;;;;;6.27;4.03;;;-2.80;74.80;-3.80;98476.00;;;;5115990;28;20518;-79
2021/12/23 01:32:49;;;;;;;4.20;3.80;;;-2.70;75.00;-3.80;98460.00;;;;5115936;28;20203;-79
2021/12/23 01:35:17;;;;;;;4.57;3.13;;;-2.80;75.10;-3.90;98452.00;;;;5115798;28;20282;-78
2021/12/23 01:37:44;;;;;;;7.03;3.23;;;-2.70;75.10;-3.70;98465.00;;;;5115572;28;20218;-79
2021/12/23 01:40:14;;;;;;;5.93;3.10;;;-2.70;75.40;-3.60;98456.00;;;;5115598;28;20190;-78
2021/12/23 01:42:40;;;;;;;2.47;2.27;;;-2.60;75.40;-3.70;98455.00;;;;5097747;28;20324;-78
2021/12/23 01:45:11;;;;;;;10.67;3.87;;;-2.60;75.10;-3.70;98467.00;;;;5115664;28;20651;-78
2021/12/23 01:47:38;;;;;;;2.33;2.23;;;-2.60;75.30;-3.70;98461.00;;;;5115762;28;20301;-78
2021/12/23 01:50:08;;;;;;;5.87;3.27;;;-2.60;75.20;-3.60;98458.00;;;;5115685;28;20221;-79
2021/12/23 01:52:35;;;;;;;3.33;3.07;;;-2.60;75.20;-3.60;98419.00;;;;5115594;28;20221;-78
2021/12/23 01:55:03;;;;;;;4.33;3.93;;;-2.60;75.10;-3.70;98466.00;;;;5115604;28;20193;-77
2021/12/23 01:57:32;;;;;;;2.67;2.57;;;-2.60;75.20;-3.70;98446.00;;;;5115537;28;20190;-78
2021/12/23 02:00:02;;;;;;;4.67;3.60;;;-2.60;75.10;-3.60;98438.00;;;;5115186;28;20232;-76
2021/12/23 02:02:30;;;;;;;1.93;1.83;;;-2.60;75.00;-3.70;98429.00;;;;5097381;28;20240;-78
2021/12/23 02:04:57;;;;;;;3.57;3.27;;;-2.60;74.90;-3.70;98436.00;;;;5097215;28;20228;-78
2021/12/23 02:07:24;;;;;;;5.20;3.10;;;-2.60;74.60;-3.70;98429.00;;;;5114639;28;20728;-78
2021/12/23 02:09:51;;;;;;;4.27;2.37;;;-2.60;75.00;-3.70;98443.00;;;;5115225;28;20205;-78
2021/12/23 02:12:18;;;;;;;3.43;2.57;;;-2.70;74.20;-3.70;98427.00;;;;5115141;28;20199;-77
2021/12/23 02:14:45;;;;;;;4.37;2.80;;;-2.70;74.40;-3.70;98426.00;;;;5097463;28;20297;-78
2021/12/23 02:17:13;;;;;;;3.83;3.40;;;-2.70;74.50;-3.70;98419.00;;;;5115226;28;20225;-79
2021/12/23 02:19:42;;;;;;;8.10;2.40;;;-2.70;74.50;-3.70;98408.00;;;;5115089;28;20277;-79
2021/12/23 02:22:09;;;;;;;7.47;2.33;;;-2.70;74.70;-3.90;98420.00;;;;5114754;28;20752;-78
2021/12/23 02:24:37;;;;;;;2.63;2.43;;;-2.70;74.90;-3.70;98404.00;;;;5114913;28;20214;-77
2021/12/23 02:27:05;;;;;;;3.10;2.90;;;-2.70;75.50;-3.80;98412.00;;;;5114807;28;20220;-78
2021/12/23 02:29:32;;;;;;;6.23;4.27;;;-2.70;75.50;-3.70;98425.00;;;;5114889;28;20190;-79
2021/12/23 02:31:58;;;;;;;8.37;3.17;;;-2.70;76.00;-3.70;98411.00;;;;5114781;28;20682;-79
2021/12/23 02:34:25;;;;;;;2.00;1.90;;;-2.60;76.00;-3.70;98407.00;;;;5114775;28;20200;-78
2021/12/23 02:36:53;;;;;;;5.43;3.70;;;-2.60;75.90;-3.60;98406.00;;;;5114806;28;20287;-76
2021/12/23 02:39:22;;;;;;;5.77;3.37;;;-2.60;76.00;-3.70;98407.00;;;;5114708;28;20215;-78
2021/12/23 02:41:49;;;;;;;2.23;2.10;;;-2.60;76.60;-3.60;98406.00;;;;5114637;28;20260;-78
2021/12/23 02:44:17;;;;;;;2.43;2.33;;;-2.60;76.10;-3.60;98396.00;;;;5114615;28;20249;-78
2021/12/23 02:46:44;;;;;;;4.33;2.80;;;-2.60;76.00;-3.60;98398.00;;;;5114658;28;20208;-78
2021/12/23 02:49:12;;;;;;;2.30;2.10;;;-2.60;76.10;-3.60;98403.00;;;;5114467;28;20262;-78
2021/12/23 02:51:39;;;;;;;4.03;3.67;;;-2.60;76.10;-3.60;98401.00;;;;5114638;28;20199;-78
2021/12/23 02:54:06;;;;;;;3.70;3.40;;;-2.60;76.00;-3.50;98356.00;;;;5114500;28;20254;-78
2021/12/23 02:56:34;;;;;;;3.93;3.53;;;-2.50;76.30;-3.60;98381.00;;;;5096570;28;20293;-78
2021/12/23 02:59:01;;;;;;;2.80;2.60;;;-2.50;76.10;-3.60;98389.00;;;;5114577;28;20256;-78
2021/12/23 03:01:29;;;;;;;5.70;2.80;;;-2.50;76.20;-3.50;98387.00;;;;5114490;28;20220;-78
2021/12/23 03:03:57;;;;;;;2.73;2.53;;;-2.50;76.40;-3.40;98386.00;;;;5096275;28;20309;-77
2021/12/23 03:06:25;;;;;;;4.30;4.00;;;-2.40;76.30;-3.50;98382.00;;;;5114350;28;20249;-78
2021/12/23 03:08:56;;;;;;;3.87;3.53;;;-2.40;76.00;-3.50;98375.00;;;;5114346;28;20539;-78
2021/12/23 03:11:28;;;;;;;3.00;2.77;;;-2.40;76.30;-3.50;98361.00;;;;5114511;28;20195;-78
2021/12/23 03:13:57;;;;;;;3.23;3.00;;;-2.40;76.30;-3.50;98366.00;;;;5114472;28;20224;-78
2021/12/23 03:16:29;;;;;;;2.17;2.07;;;-2.40;76.10;-3.50;98355.00;;;;5114396;28;20274;-77
2021/12/23 03:18:56;;;;;;;3.20;3.00;;;-2.40;76.00;-3.50;98315.00;;;;5118028;28;20193;-78
2021/12/23 03:21:25;;;;;;;4.10;3.70;;;-2.40;76.20;-3.70;98357.00;;;;5118106;28;20712;-78
2021/12/23 03:23:52;;;;;;;3.33;3.13;;;-2.50;76.10;-3.50;98348.00;;;;5100009;28;20585;-78
2021/12/23 03:26:20;;;;;;;1.83;1.73;;;-2.40;76.50;-3.50;98346.00;;;;5118138;28;20291;-78
2021/12/23 03:28:46;;;;;;;2.77;2.57;;;-2.40;76.40;-3.40;98356.00;;;;5117978;28;20283;-79
2021/12/23 03:31:17;;;;;;;5.53;3.10;;;-2.40;76.50;-3.40;98351.00;;;;5118177;28;20587;-78
2021/12/23 03:33:45;;;;;;;4.40;2.10;;;-2.40;76.50;-3.40;98332.00;;;;5099826;28;20222;-77
2021/12/23 03:36:12;;;;;;;2.53;2.40;;;-2.40;76.20;-3.40;98317.00;;;;5118025;28;20313;-78
2021/12/23 03:38:39;;;;;;;2.30;2.20;;;-2.30;76.40;-3.30;98306.00;;;;5117995;28;20195;-79
2021/12/23 03:41:05;;;;;;;3.10;2.90;;;-2.30;76.10;-3.40;98323.00;;;;5118306;28;20233;-78
2021/12/23 03:43:33;;;;;;;1.70;1.67;;;-2.30;75.70;-3.30;98330.00;;;;5118368;28;20229;-79
2021/12/23 03:46:00;;;;;;;2.83;2.67;;;-2.30;76.00;-3.30;98321.00;;;;5118237;28;20288;-78
2021/12/23 03:48:27;;;;;;;4.80;3.43;;;-2.30;75.90;-3.30;98317.00;;;;5118319;28;20233;-79
2021/12/23 03:50:54;;;;;;;2.80;2.60;;;-2.30;75.70;-3.40;98268.00;;;;5100278;28;20227;-78
2021/12/23 03:53:22;;;;;;;3.70;3.10;;;-2.30;75.70;-3.40;98293.00;;;;5100231;28;20284;-78
2021/12/23 03:55:49;;;;;;;5.30;3.77;;;-2.30;75.80;-3.30;98303.00;;;;5118083;28;20223;-77
2021/12/23 03:58:15;;;;;;;1.93;1.83;;;-2.30;76.00;-3.30;98305.00;;;;5117928;28;20232;-78
2021/12/23 04:00:43;;;;;;;2.77;2.57;;;-2.30;76.10;-3.30;98300.00;;;;5117683;28;20206;-79
2021/12/23 04:03:10;;;;;;;5.37;4.20;;;-2.30;76.10;-3.20;98302.00;;;;5117276;28;20289;-78
2021/12/23 04:05:37;;;;;;;2.93;2.67;;;-2.20;76.10;-3.30;98294.00;;;;5117227;28;20287;-79
2021/12/23 04:08:05;;;;;;;6.47;3.67;;;-2.20;75.90;-3.20;98302.00;;;;5117180;28;20227;-78
2021/12/23 04:10:33;;;;;;;5.23;3.00;;;-2.20;76.10;-3.00;98302.00;;;;5099337;28;20224;-78
2021/12/23 04:12:59;;;;;;;3.97;3.67;;;-2.10;75.90;-3.00;98287.00;;;;5117225;28;20185;-78
2021/12/23 04:15:26;;;;;;;1.63;1.53;;;-2.00;76.10;-3.10;98284.00;;;;5117261;28;20329;-78
2021/12/23 04:17:53;;;;;;;2.80;2.50;;;-2.00;75.20;-3.00;98285.00;;;;5117158;28;20203;-78
2021/12/23 04:20:22;;;;;;;4.33;2.67;;;-2.00;75.40;-3.00;98282.00;;;;5117058;28;20220;-78
2021/12/23 04:22:54;;;;;;;3.03;2.83;;;-2.00;75.40;-3.00;98286.00;;;;5117059;28;20222;-78
2021/12/23 04:25:23;;;;;;;2.77;2.57;;;-1.90;75.40;-2.90;98287.00;;;;5116961;28;20296;-78
2021/12/23 04:28:01;;;;;;;3.00;2.80;;;-1.90;75.40;-3.00;98283.00;;;;5117005;28;20217;-78
2021/12/23 04:30:28;;;;;;;5.80;3.43;;;-1.90;74.40;-3.10;98266.00;;;;5098285;28;20215;-79
2021/12/23 04:32:55;;;;;;;2.13;1.97;;;-2.00;74.20;-3.10;98264.00;;;;5116911;28;20199;-78
2021/12/23 04:35:25;;;;;;;9.17;5.20;;;-2.00;74.10;-3.20;98274.00;;;;5098901;28;20208;-78
2021/12/23 04:37:52;;;;;;;2.80;2.70;;;-2.10;73.50;-3.20;98282.00;;;;5098826;28;20637;-77
2021/12/23 04:40:19;;;;;;;3.77;3.47;;;-2.10;73.60;-3.10;98284.00;;;;5116824;28;20204;-78
2021/12/23 04:42:45;;;;;;;3.10;2.90;;;-2.10;73.90;-3.20;98269.00;;;;5098807;28;20646;-76
2021/12/23 04:45:12;;;;;;;4.30;3.73;;;-2.10;73.40;-3.20;98273.00;;;;5116738;28;20220;-79
2021/12/23 04:47:40;;;;;;;5.33;2.63;;;-2.20;73.30;-3.20;98267.00;;;;5116696;28;20230;-78
2021/12/23 04:50:12;;;;;;;4.63;3.27;;;-2.20;73.70;-3.20;98264.00;;;;5098766;28;20209;-78
2021/12/23 04:52:40;;;;;;;5.47;2.40;;;-2.20;73.90;-3.30;98249.00;;;;5116672;28;20216;-78
2021/12/23 04:55:12;;;;;;;4.53;3.07;;;-2.20;74.00;-3.30;98244.00;;;;5116761;28;20222;-78
2021/12/23 04:57:42;;;;;;;2.77;2.00;;;-2.20;74.40;-3.20;98237.00;;;;5116652;28;20582;-78
2021/12/23 05:00:14;;;;;;;4.33;3.50;;;-2.20;74.80;-3.20;98237.00;;;;5116384;28;20295;-78
2021/12/23 05:02:41;;;;;;;2.97;2.77;;;-2.20;74.90;-3.20;98228.00;;;;5116708;28;20315;-78
2021/12/23 05:05:11;;;;;;;3.80;1.87;;;-2.10;75.10;-3.10;98229.00;;;;5116451;28;20195;-76
2021/12/23 05:07:40;;;;;;;2.30;2.10;;;-2.10;75.10;-3.20;98237.00;;;;5116459;28;20274;-78
2021/12/23 05:10:11;;;;;;;2.00;1.90;;;-2.10;74.80;-3.20;98246.00;;;;5116229;28;20222;-78
2021/12/23 05:12:43;;;;;;;2.63;2.43;;;-2.10;74.90;-3.20;98248.00;;;;5098463;28;20294;-78
2021/12/23 05:15:10;;;;;;;3.73;3.23;;;-2.10;74.70;-3.20;98247.00;;;;5116317;28;20671;-78
2021/12/23 05:17:37;;;;;;;4.47;4.17;;;-2.10;74.60;-3.30;98247.00;;;;5116361;28;20723;-78
2021/12/23 05:20:06;;;;;;;2.20;1.73;;;-2.20;74.70;-3.30;98242.00;;;;5116340;28;20241;-78
2021/12/23 05:22:33;;;;;;;4.57;2.70;;;-2.20;74.80;-3.40;98248.00;;;;5116221;28;20230;-78
2021/12/23 05:25:00;;;;;;;4.83;2.57;;;-2.30;74.50;-3.40;98260.00;;;;5116482;28;20226;-77
2021/12/23 05:27:27;;;;;;;3.23;2.33;;;-2.30;74.80;-3.30;98258.00;;;;5116369;28;20362;-77
2021/12/23 05:29:54;;;;;;;3.97;2.77;;;-2.20;74.80;-3.20;98256.00;;;;5116086;28;20309;-78
2021/12/23 05:32:21;;;;;;;3.30;3.10;;;-2.20;74.30;-3.20;98247.00;;;;5116128;28;20229;-78
2021/12/23 05:34:47;;;;;;;7.70;3.90;;;-2.20;74.10;-3.30;98259.00;;;;5116025;28;20195;-78
2021/12/23 05:37:14;;;;;;;2.20;2.10;;;-2.20;73.90;-3.30;98246.00;;;;5115876;28;20204;-78
2021/12/23 05:39:40;;;;;;;3.73;3.37;;;-2.20;73.90;-3.30;98243.00;;;;5115906;28;20674;-78
2021/12/23 05:42:09;;;;;;;2.43;2.23;;;-2.20;74.70;-3.30;98241.00;;;;5097796;28;20200;-79
2021/12/23 05:44:36;;;;;;;3.57;3.27;;;-2.20;74.20;-3.30;98204.00;;;;5115652;28;20294;-79
2021/12/23 05:47:06;;;;;;;3.07;2.83;;;-2.20;74.90;-3.30;98219.00;;;;5115746;28;20615;-78
2021/12/23 05:49:33;;;;;;;3.23;3.03;;;-2.30;74.10;-3.30;98222.00;;;;5115684;28;20220;-78
2021/12/23 05:52:00;;;;;;;7.03;4.13;;;-2.30;74.20;-3.30;98207.00;;;;5115529;28;20282;-78
2021/12/23 05:54:26;;;;;;;2.03;1.93;;;-2.30;74.80;-3.20;98228.00;;;;5115484;28;20228;-78
2021/12/23 05:56:57;;;;;;;2.10;2.00;;;-2.20;74.00;-3.30;98200.00;;;;5115605;28;20341;-78
2021/12/23 05:59:23;;;;;;;2.17;2.07;;;-2.20;73.90;-3.30;98202.00;;;;5115538;28;20580;-78
2021/12/23 06:01:50;;;;;;;2.73;2.53;;;-2.20;73.60;-3.30;98197.00;;;;5097921;28;20493;-78
2021/12/23 06:04:17;;;;;;;3.67;3.37;;;-2.20;73.80;-3.30;98219.00;;;;5115426;28;20310;-77
2021/12/23 06:06:43;;;;;;;2.73;2.53;;;-2.30;73.60;-3.30;98212.00;;;;5115430;28;20231;-77
2021/12/23 06:09:10;;;;;;;3.40;2.23;;;-2.30;73.80;-3.30;98204.00;;;;5115352;28;20235;-78
2021/12/23 06:11:39;;;;;;;2.13;2.03;;;-2.30;73.70;-3.40;98199.00;;;;5097438;28;20226;-78
2021/12/23 06:14:06;;;;;;;3.60;2.43;;;-2.30;73.80;-3.30;98199.00;;;;5115226;28;20234;-78
2021/12/23 06:16:35;;;;;;;2.83;2.60;;;-2.30;74.00;-3.30;98192.00;;;;5115010;28;20238;-77
2021/12/23 06:19:02;;;;;;;3.90;2.67;;;-2.30;74.10;-3.30;98206.00;;;;5115207;28;20490;-78
2021/12/23 06:21:31;;;;;;;8.67;2.83;;;-2.30;73.90;-3.30;98199.00;;;;5097272;28;20200;-79
2021/12/23 06:23:58;;;;;;;1.90;1.80;;;-2.30;73.90;-3.50;98194.00;;;;5115331;28;20217;-78
2021/12/23 06:26:24;;;;;;;2.37;2.20;;;-2.30;73.30;-3.30;98200.00;;;;5114981;28;20202;-78
2021/12/23 06:28:53;;;;;;;2.37;2.17;;;-2.30;73.50;-3.30;98209.00;;;;5114945;28;20532;-78
2021/12/23 06:31:22;;;;;;;2.77;1.93;;;-2.20;73.60;-3.30;98204.00;;;;5114985;28;20212;-78
2021/12/23 06:33:49;;;;;;;1.93;1.83;;;-2.20;73.50;-3.30;98211.00;;;;5114780;28;20226;-78
2021/12/23 06:36:17;;;;;;;2.23;2.10;;;-2.20;73.70;-3.10;98204.00;;;;5097059;28;20598;-78
2021/12/23 06:38:45;;;;;;;4.73;4.03;;;-2.10;74.20;-3.20;98208.00;;;;5114738;28;20203;-78
2021/12/23 06:41:12;;;;;;;6.67;4.60;;;-2.10;73.40;-3.40;98226.00;;;;5114895;28;20289;-78
2021/12/23 06:43:39;;;;;;;5.90;4.27;;;-2.30;72.40;-3.50;98229.00;;;;5114790;28;20706;-78
2021/12/23 06:46:06;;;;;;;6.70;4.90;;;-2.30;72.40;-3.60;98215.00;;;;5114791;28;20223;-78
2021/12/23 06:48:33;;;;;;;4.50;4.20;;;-2.40;72.50;-3.60;98200.00;;;;5114748;28;20627;-78
2021/12/23 06:51:00;;;;;;;8.07;4.43;;;-2.50;72.90;-3.60;98219.00;;;;5114792;28;20303;-78
2021/12/23 06:53:29;;;;;;;2.23;2.03;;;-2.50;73.10;-3.80;98206.00;;;;5114104;28;20293;-78
2021/12/23 06:56:00;;;;;;;4.70;3.57;;;-2.60;72.60;-3.90;98204.00;;;;5114616;28;20251;-78
2021/12/23 06:58:27;;;;;;;2.63;2.43;;;-2.70;73.10;-3.90;98192.00;;;;5114665;28;20211;-78
2021/12/23 07:00:55;;;;;;;1.93;1.83;;;-2.70;73.80;-3.90;98177.00;;;;5114597;28;20204;-78
2021/12/23 07:03:24;;;;;;;3.83;2.83;;;-2.70;74.60;-3.70;98204.00;;;;5114553;28;20220;-78
2021/12/23 07:05:56;;;;;;;3.70;2.47;;;-2.60;75.20;-3.60;98198.00;;;;5114503;28;20579;-78
2021/12/23 07:08:27;;;;;;;3.10;2.83;;;-2.60;75.10;-3.60;98198.00;;;;5114516;28;20224;-78
2021/12/23 07:10:54;;;;;;;5.87;2.93;;;-2.60;74.70;-3.70;98192.00;;;;5114454;28;20184;-78
2021/12/23 07:13:21;;;;;;;3.70;3.37;;;-2.60;74.40;-3.60;98199.00;;;;5114639;28;20224;-78
2021/12/23 07:15:48;;;;;;;5.33;2.70;;;-2.60;74.80;-3.70;98202.00;;;;5114482;28;20201;-78
2021/12/23 07:18:14;;;;;;;2.87;2.67;;;-2.60;74.20;-3.70;98193.00;;;;5114275;28;20193;-78
2021/12/23 07:20:41;;;;;;;2.70;2.47;;;-2.60;74.70;-3.60;98192.00;;;;5114264;28;20284;-78
2021/12/23 07:23:07;;;;;;;2.87;2.67;;;-2.60;74.50;-3.50;98190.00;;;;5114190;28;20307;-78
2021/12/23 07:25:35;;;;;;;3.97;3.67;;;-2.50;74.70;-3.60;98183.00;;;;5096458;28;20196;-78
2021/12/23 07:28:02;;;;;;;2.47;2.27;;;-2.50;74.30;-3.50;98194.00;;;;5114224;28;20195;-78
2021/12/23 07:30:29;;;;;;;2.50;2.30;;;-2.50;74.80;-3.50;98201.00;;;;5114107;28;20234;-78
2021/12/23 07:32:56;;;;;;;5.23;3.93;;;-2.50;74.90;-3.40;98197.00;;;;5114085;28;20283;-78
2021/12/23 07:35:22;;;;;;;3.03;2.77;;;-2.40;74.90;-3.40;98198.00;;;;5114175;28;20226;-77
2021/12/23 07:37:51;;;;;;;2.80;2.60;;;-2.40;74.50;-3.40;98194.00;;;;5096077;28;20227;-78
2021/12/23 07:40:18;;;;;;;5.50;2.53;;;-2.40;74.60;-3.60;98121.00;;;;5096440;28;20295;-78
2021/12/23 07:42:54;;;;;;;2.63;2.40;;;-2.40;74.00;-3.50;98168.00;;;;5096331;28;20327;-78
2021/12/23 07:45:24;;;;;;;2.40;1.00;;;-2.40;74.50;-3.50;98171.00;;;;5114376;28;20201;-77
2021/12/23 07:47:50;;;;;;;2.50;2.17;;;-2.40;74.40;-3.40;98182.00;;;;5095885;28;20229;-78
2021/12/23 07:50:17;;;;;;;1.80;1.70;;;-2.40;75.00;-3.50;98180.00;;;;5113989;28;20191;-78
2021/12/23 07:52:44;;;;;;;6.93;3.63;;;-2.40;74.80;-3.40;98173.00;;;;5096013;28;20223;-77
2021/12/23 07:55:11;;;;;;;1.77;1.67;;;-2.40;75.90;-3.30;98166.00;;;;5096146;28;20210;-78
2021/12/23 07:57:38;;;;;;;1.87;1.77;;;-2.30;75.10;-3.20;98171.00;;;;5113850;28;20210;-77
2021/12/23 08:00:06;;;;;;;2.50;2.40;;;-2.20;75.00;-3.10;98173.00;;;;5113855;28;20208;-78
2021/12/23 08:02:36;;;;;;;3.43;3.13;;;-2.20;74.70;-3.10;98159.00;;;;5113851;28;20209;-78
2021/12/23 08:05:04;;;;;;;2.77;2.57;;;-2.10;74.40;-3.00;98164.00;;;;5098078;28;20204;-77
2021/12/23 08:07:30;;;;;;;2.40;2.27;;;-2.00;74.10;-3.00;98158.00;;;;5117187;28;20288;-78
2021/12/23 08:09:59;;;;;;;3.03;2.73;;;-2.00;74.00;-2.90;98163.00;;;;5116961;28;20302;-78
2021/12/23 08:12:25;;;;;;;2.93;2.77;;;-1.90;74.20;-2.70;98164.00;;;;5117217;28;20787;-78
2021/12/23 08:14:52;;;;;;;1.87;1.77;;;-1.80;74.00;-2.80;98145.00;;;;5117164;28;20233;-78
2021/12/23 08:17:18;;;;;;;3.57;3.27;;;-1.80;73.90;-2.70;98147.00;;;;5117236;28;20248;-78
2021/12/23 08:19:45;;;;;;;2.80;2.57;;;-1.70;74.10;-2.50;98154.00;;;;5116912;28;20197;-76
2021/12/23 08:22:12;;;;;;;2.70;2.50;;;-1.60;74.00;-2.50;98145.00;;;;5116881;28;20197;-77
2021/12/23 08:24:38;;;;;;;2.47;2.27;;;-1.50;74.00;-2.40;98140.00;;;;5116907;28;20668;-79
2021/12/23 08:27:07;;;;;;;3.40;3.10;;;-1.50;73.90;-2.40;98142.00;;;;5117113;28;20195;-79
2021/12/23 08:29:37;;;;;;;2.30;2.20;;;-1.50;73.80;-2.40;98144.00;;;;5117102;28;20203;-78
2021/12/23 08:32:05;;;;;;;1.67;1.57;;;-1.40;73.80;-2.30;98160.00;;;;5116876;28;20227;-78
2021/12/23 08:34:34;;;;;;;7.73;2.90;;;-1.40;74.20;-2.20;98156.00;;;;5116837;28;20279;-77
2021/12/23 08:37:02;;;;;;;2.33;2.13;;;-1.30;74.20;-2.20;98140.00;;;;5116945;28;20252;-76
2021/12/23 08:39:29;;;;;;;2.60;2.40;;;-1.20;74.40;-2.10;98133.00;;;;5116979;28;20280;-78
2021/12/23 08:41:58;;;;;;;2.53;2.33;;;-1.20;75.10;-2.10;98138.00;;;;5116879;28;20212;-77
2021/12/23 08:44:24;;;;;;;2.57;2.13;;;-1.10;74.50;-2.10;98141.00;;;;5116793;28;20223;-78
2021/12/23 08:46:51;;;;;;;2.03;1.93;;;-1.10;74.50;-2.00;98141.00;;;;5117184;28;20280;-78
2021/12/23 08:49:17;;;;;;;1.60;1.50;;;-1.00;74.60;-1.90;98133.00;;;;5117337;28;20220;-78
2021/12/23 08:51:44;;;;;;;1.90;1.80;;;-1.00;74.40;-2.00;98140.00;;;;5099147;28;20308;-77
2021/12/23 08:54:13;;;;;;;4.50;4.07;;;-0.90;74.40;-1.70;98122.00;;;;5117095;28;20222;-78
2021/12/23 08:56:40;;;;;;;2.97;2.67;;;-0.80;75.50;-1.50;98111.00;;;;5099376;28;20289;-78
2021/12/23 08:59:09;;;;;;;1.43;1.43;;;-0.60;74.40;-1.40;98121.00;;;;5116886;28;20208;-78
2021/12/23 09:01:35;;;;;;;2.10;1.90;;;-0.60;74.10;-1.30;98123.00;;;;5116985;28;20594;-77
2021/12/23 09:04:02;;;;;;;3.10;2.90;;;-0.40;74.10;-1.30;98129.00;;;;5116468;28;20232;-77
2021/12/23 09:06:29;;;;;;;2.67;2.57;;;-0.40;73.80;-1.20;98128.00;;;;5116313;28;20208;-78
2021/12/23 09:08:58;;;;;;;1.50;1.40;;;-0.30;74.00;-1.10;98124.00;;;;5116389;28;20201;-78
2021/12/23 09:11:26;;;;;;;1.53;1.43;;;-0.20;73.90;-1.10;98133.00;;;;5116284;28;20236;-78
2021/12/23 09:13:53;;;;;;;4.73;2.53;;;-0.20;73.90;-1.10;98089.00;;;;5116329;28;20313;-77
2021/12/23 09:16:19;;;;;;;2.73;2.63;;;-0.10;74.00;-1.00;98127.00;;;;5115793;28;20264;-76
2021/12/23 09:18:46;;;;;;;3.23;1.80;;;0.00;74.10;-0.90;98132.00;;;;5098351;28;20344;-76
2021/12/23 09:21:12;;;;;;;1.90;1.80;;;0.00;73.90;-0.90;98130.00;;;;5116264;28;20190;-77
2021/12/23 09:23:40;;;;;;;2.60;2.40;;;0.00;74.00;-0.80;98083.00;;;;5115852;28;20240;-72
2021/12/23 09:26:10;;;;;;;2.40;2.20;;;0.10;74.20;-0.80;98131.00;;;;5116093;28;20219;-74
2021/12/23 09:28:54;;;;;;;2.87;2.67;;;0.20;74.10;-0.70;98120.00;;;;5115959;28;20223;-75
2021/12/23 09:34:06;;;;;;;1.30;1.30;;;0.20;73.90;-0.60;98127.00;;;;5115999;28;20209;-79
2021/12/23 09:36:36;;;;;;;1.93;1.83;;;0.30;74.00;-0.60;98123.00;;;;5115947;28;20205;-75
2021/12/23 09:39:05;;;;;;;3.03;2.50;;;0.30;73.90;-0.60;98118.00;;;;5097830;28;20292;-77
2021/12/23 09:41:37;;;;;;;2.77;2.33;;;0.40;74.00;-0.50;98122.00;;;;5115719;28;20206;-76
2021/12/23 09:44:06;;;;;;;2.90;2.20;;;0.40;75.00;-0.40;98126.00;;;;5115643;28;20218;-76
2021/12/23 09:46:34;;;;;;;2.73;2.10;;;0.50;74.20;-0.40;98115.00;;;;5097943;28;20193;-76
2021/12/23 09:49:02;;;;;;;2.57;2.47;;;0.60;74.00;-0.30;98115.00;;;;5115620;28;20194;-77
2021/12/23 09:51:32;;;;;;;3.03;2.73;;;0.60;74.50;-0.20;98106.00;;;;5115433;28;20202;-75
2021/12/23 09:54:03;;;;;;;2.40;2.23;;;0.70;73.80;-0.20;98109.00;;;;5115444;28;20185;-72
2021/12/23 09:56:33;;;;;;;1.90;1.80;;;0.70;73.40;0.00;98116.00;;;;5115390;28;20641;-72
2021/12/23 09:59:02;;;;;;;2.63;1.57;;;0.80;73.50;0.10;98086.00;;;;5115545;28;20293;-71
2021/12/23 10:01:31;;;;;;;1.90;1.80;;;1.00;73.30;0.30;98088.00;;;;5115412;28;20206;-70
2021/12/23 10:03:59;;;;;;;3.17;2.80;;;1.10;73.40;0.40;98093.00;;;;5115388;28;20300;-72
2021/12/23 10:06:26;;;;;;;3.07;2.87;;;1.20;72.90;0.50;98077.00;;;;5115467;28;20265;-72
2021/12/23 10:08:55;;;;;;;1.70;1.60;;;1.30;72.60;0.70;98086.00;;;;5115276;28;20241;-72
2021/12/23 10:11:29;;;;;;;1.43;1.43;;;1.40;72.00;0.70;98086.00;;;;5097473;28;20202;-73
2021/12/23 10:31:06;;;;;;;2.43;2.20;;;1.80;71.30;1.00;98078.00;;;;5060656;28;20215;-76
2021/12/23 10:33:50;;;;;;;2.30;2.07;;;1.80;71.40;1.10;98079.00;;;;5114936;28;20222;-76
2021/12/23 10:39:22;;;;;;;2.10;2.00;;;2.00;71.90;1.20;98076.00;;;;5113957;28;20200;-75
2021/12/23 10:41:49;;;;;;;3.60;3.30;;;2.10;72.10;1.40;98066.00;;;;5114938;28;20291;-75
2021/12/23 10:44:29;;;;;;;3.33;3.03;;;2.20;72.00;1.50;98056.00;;;;5114817;28;20350;-75
2021/12/23 10:46:58;;;;;;;3.20;2.23;;;2.20;71.70;1.60;98040.00;;;;5097203;28;20211;-75
2021/12/23 10:49:38;;;;;;;2.00;1.20;;;2.40;70.70;1.60;98040.00;;;;5114726;28;20184;-73
2021/12/23 10:52:11;;;;;;;2.30;1.83;;;2.40;71.40;1.70;98039.00;;;;5114698;28;20218;-76
2021/12/23 11:00:42;;;;;;;2.60;2.40;;;2.50;70.80;1.70;98029.00;;;;5032451;28;20635;-73
2021/12/23 11:03:16;;;;;;;4.90;3.70;;;2.60;70.40;1.80;97989.00;;;;5076614;28;20224;-73
2021/12/23 11:05:47;;;;;;;3.60;2.63;;;2.60;70.30;1.70;98021.00;;;;5114624;28;20233;-75
2021/12/23 11:08:28;;;;;;;2.83;2.63;;;2.60;69.20;1.80;98018.00;;;;5114709;28;20287;-75
2021/12/23 11:11:25;;;;;;;3.47;3.17;;;2.60;69.20;1.80;98005.00;;;;5114412;28;20297;-74
2021/12/23 11:37:04;;;;;;;2.90;2.40;;;3.00;70.10;2.20;97981.00;;;;5114201;28;20221;-77
2021/12/23 11:39:45;;;;;;;1.73;1.63;;;3.00;70.10;2.30;97970.00;;;;5117229;28;20273;-75
2021/12/23 11:42:17;;;;;;;5.00;2.47;;;3.10;70.40;2.30;97973.00;;;;5117787;28;20235;-77
2021/12/23 11:44:47;;;;;;;2.23;2.10;;;3.20;70.00;2.50;97962.00;;;;5117595;28;20223;-77
2021/12/23 11:47:15;;;;;;;4.97;2.50;;;3.30;70.20;2.50;97955.00;;;;5117681;28;20699;-77
2021/12/23 11:49:46;;;;;;;1.80;1.70;;;3.30;70.10;2.60;97955.00;;;;5117527;28;20639;-77
2021/12/23 11:52:14;;;;;;;4.50;3.30;;;3.40;70.40;2.70;97952.00;;;;5117536;28;20224;-77
2021/12/23 11:54:45;;;;;;;2.60;2.40;;;3.40;70.40;2.80;97949.00;;;;5117445;28;20221;-77
2021/12/23 11:57:16;;;;;;;2.77;2.57;;;3.50;70.50;2.90;97936.00;;;;5117479;28;20221;-77
2021/12/23 12:00:02;;;;;;;4.60;3.13;;;3.60;70.60;2.90;97942.00;;;;5117464;28;20262;-77